createdAt,value
2023-05-21T00:01:25.210Z,51.24
2023-05-21T00:03:52.068Z,51.13
2023-05-21T00:06:20.359Z,51.26
2023-05-21T00:08:47.041Z,51.24
2023-05-21T00:11:13.707Z,51.19
2023-05-21T00:13:40.669Z,51.38
2023-05-21T00:16:10.548Z,51.04
2023-05-21T00:18:38.896Z,50.96
2023-05-21T00:21:07.153Z,51.42
2023-05-21T00:23:35.963Z,51.15
2023-05-21T00:26:02.661Z,51.15
2023-05-21T00:28:29.422Z,51.12
2023-05-21T00:30:56.056Z,51.17
2023-05-21T00:33:25.883Z,51.18
2023-05-21T00:35:52.697Z,51.32
2023-05-21T00:38:19.535Z,51.31
2023-05-21T00:40:46.709Z,51.54
2023-05-21T00:43:16.228Z,51.46
2023-05-21T00:45:49.890Z,51.42
2023-05-21T00:48:16.557Z,51.36
2023-05-21T00:50:44.318Z,51.18
2023-05-21T00:53:11.017Z,51.33
2023-05-21T00:55:38.100Z,51.33
2023-05-21T00:58:05.939Z,51.33
2023-05-21T01:00:33.255Z,51.16
2023-05-21T01:03:00.535Z,50.62
2023-05-21T01:05:28.253Z,51.01
2023-05-21T01:07:55.505Z,51.27
2023-05-21T01:10:22.434Z,51.56
2023-05-21T01:12:49.287Z,51.68
2023-05-21T01:15:17.009Z,51.25
2023-05-21T01:17:45.575Z,50.79
2023-05-21T01:20:12.293Z,51.20
2023-05-21T01:22:54.186Z,51.71
2023-05-21T01:25:22.643Z,51.91
2023-05-21T01:27:50.386Z,51.70
2023-05-21T01:30:17.716Z,51.18
2023-05-21T01:33:04.191Z,51.65
2023-05-21T01:35:44.726Z,52.13
2023-05-21T01:38:37.502Z,52.56
2023-05-21T01:41:07.654Z,52.13
2023-05-21T01:43:36.403Z,52.20
2023-05-21T01:46:03.088Z,52.55
2023-05-21T01:48:30.413Z,53.00
2023-05-21T01:50:57.917Z,52.72
2023-05-21T01:53:25.111Z,52.37
2023-05-21T01:55:51.829Z,52.59
2023-05-21T01:58:19.068Z,53.28
2023-05-21T02:00:45.959Z,53.36
2023-05-21T02:03:14.643Z,52.99
2023-05-21T02:05:41.850Z,53.00
2023-05-21T02:08:09.607Z,53.26
2023-05-21T02:10:40.087Z,54.02
2023-05-21T02:13:07.148Z,53.62
2023-05-21T02:15:35.456Z,53.29
2023-05-21T02:18:03.380Z,53.40
2023-05-21T02:20:32.675Z,53.58
2023-05-21T02:22:59.469Z,53.15
2023-05-21T02:25:27.241Z,52.99
2023-05-21T02:27:56.030Z,53.07
2023-05-21T02:30:22.988Z,53.55
2023-05-21T02:32:50.510Z,53.32
2023-05-21T02:35:20.605Z,52.74
2023-05-21T02:37:48.463Z,53.22
2023-05-21T02:40:15.369Z,53.61
2023-05-21T02:42:42.063Z,53.07
2023-05-21T02:45:10.738Z,52.71
2023-05-21T02:47:38.615Z,52.88
2023-05-21T02:50:07.480Z,53.35
2023-05-21T02:52:35.858Z,52.81
2023-05-21T02:55:02.691Z,52.12
2023-05-21T02:57:30.230Z,52.32
2023-05-21T02:59:57.025Z,52.94
2023-05-21T03:02:23.853Z,52.95
2023-05-21T03:04:51.829Z,52.41
2023-05-21T03:07:19.299Z,51.45
2023-05-21T03:09:46.155Z,51.43
2023-05-21T03:12:12.872Z,51.56
2023-05-21T03:14:45.805Z,51.90
2023-05-21T03:17:14.575Z,51.71
2023-05-21T03:19:41.333Z,51.67
2023-05-21T03:22:08.314Z,51.71
2023-05-21T03:24:40.738Z,52.03
2023-05-21T03:27:08.887Z,52.23
2023-05-21T03:29:37.087Z,52.27
2023-05-21T03:32:04.540Z,51.95
2023-05-21T03:34:33.959Z,50.97
2023-05-21T03:37:01.526Z,50.51
2023-05-21T03:39:28.616Z,50.70
2023-05-21T03:41:55.971Z,51.19
2023-05-21T03:44:37.451Z,51.38
2023-05-21T03:47:36.545Z,51.59
2023-05-21T03:50:05.655Z,51.76
2023-05-21T03:52:32.846Z,51.74
2023-05-21T03:55:01.062Z,50.97
2023-05-21T03:57:27.710Z,50.90
2023-05-21T03:59:55.365Z,51.58
2023-05-21T04:02:22.737Z,51.59
2023-05-21T04:04:50.960Z,51.87
2023-05-21T04:07:21.687Z,51.24
2023-05-21T04:09:48.680Z,51.08
2023-05-21T04:12:17.647Z,50.89
2023-05-21T04:14:44.385Z,50.22
2023-05-21T04:17:12.092Z,49.82
2023-05-21T04:19:39.497Z,49.62
2023-05-21T04:22:06.292Z,50.51
2023-05-21T04:24:33.424Z,50.82
2023-05-21T04:27:09.452Z,50.89
2023-05-21T04:29:37.176Z,50.70
2023-05-21T04:32:04.468Z,50.13
2023-05-21T04:34:33.433Z,49.58
2023-05-21T04:37:01.728Z,50.10
2023-05-21T04:39:30.906Z,49.20
2023-05-21T04:41:58.912Z,49.83
2023-05-21T04:44:25.983Z,50.32
2023-05-21T04:46:54.250Z,50.73
2023-05-21T04:49:21.026Z,50.99
2023-05-21T04:51:48.854Z,50.94
2023-05-21T04:54:16.599Z,51.27
2023-05-21T04:56:44.454Z,51.57
2023-05-21T04:59:11.131Z,50.70
2023-05-21T05:01:37.910Z,49.88
2023-05-21T05:04:05.118Z,49.23
2023-05-21T05:06:32.367Z,48.89
2023-05-21T05:08:59.272Z,48.34
2023-05-21T05:11:26.084Z,47.74
2023-05-21T05:13:52.909Z,48.66
2023-05-21T05:16:25.659Z,48.79
2023-05-21T05:18:53.146Z,48.61
2023-05-21T05:21:21.712Z,48.54
2023-05-21T05:23:48.447Z,48.28
2023-05-21T05:26:17.281Z,48.64
2023-05-21T05:28:45.651Z,48.79
2023-05-21T05:31:37.643Z,48.69
2023-05-21T05:34:07.675Z,48.47
2023-05-21T05:36:34.221Z,48.25
2023-05-21T05:39:05.155Z,48.33
2023-05-21T05:41:31.884Z,47.99
2023-05-21T05:43:58.797Z,47.81
2023-05-21T05:46:28.483Z,47.51
2023-05-21T05:48:56.281Z,47.75
2023-05-21T05:51:23.020Z,47.84
2023-05-21T05:53:51.158Z,47.08
2023-05-21T05:56:17.820Z,46.74
2023-05-21T05:58:44.606Z,46.65
2023-05-21T06:01:15.759Z,46.56
2023-05-21T06:03:42.578Z,46.52
2023-05-21T06:06:14.833Z,46.59
2023-05-21T06:08:41.971Z,45.90
2023-05-21T06:11:09.379Z,45.58
2023-05-21T06:13:37.292Z,45.43
2023-05-21T06:16:05.791Z,44.96
2023-05-21T06:18:33.075Z,44.71
2023-05-21T06:20:59.957Z,44.32
2023-05-21T06:23:26.795Z,44.32
2023-05-21T06:25:55.665Z,44.05
2023-05-21T06:28:22.530Z,43.70
2023-05-21T06:30:49.357Z,44.22
2023-05-21T06:33:16.201Z,43.84
2023-05-21T06:35:42.967Z,43.41
2023-05-21T06:38:11.325Z,42.94
2023-05-21T06:40:38.049Z,43.03
2023-05-21T06:43:05.956Z,43.51
2023-05-21T06:45:51.751Z,42.94
2023-05-21T06:48:41.954Z,41.69
2023-05-21T06:51:08.667Z,41.63
2023-05-21T06:53:35.623Z,42.42
2023-05-21T06:56:03.170Z,42.26
2023-05-21T06:58:39.410Z,41.38
2023-05-21T07:01:07.040Z,41.68
2023-05-21T07:03:35.806Z,42.22
2023-05-21T07:06:05.949Z,41.90
2023-05-21T07:08:33.130Z,41.44
2023-05-21T07:10:59.972Z,41.15
2023-05-21T07:13:29.443Z,40.50
2023-05-21T07:15:56.292Z,39.49
2023-05-21T07:18:24.926Z,38.93
2023-05-21T07:20:53.274Z,38.30
2023-05-21T07:23:20.856Z,38.01
2023-05-21T07:25:47.650Z,39.11
2023-05-21T07:28:14.622Z,39.30
2023-05-21T07:30:41.601Z,38.97
2023-05-21T07:33:12.179Z,39.49
2023-05-21T07:35:39.000Z,39.76
2023-05-21T07:38:06.255Z,39.43
2023-05-21T07:40:33.647Z,39.28
2023-05-21T07:43:01.536Z,38.65
2023-05-21T07:45:30.810Z,39.06
2023-05-21T07:48:02.178Z,38.94
2023-05-21T07:50:31.370Z,38.91
2023-05-21T07:52:59.169Z,39.49
2023-05-21T07:55:26.073Z,38.10
2023-05-21T07:57:52.724Z,37.36
2023-05-21T08:00:27.161Z,37.66
2023-05-21T08:02:54.097Z,37.74
2023-05-21T08:05:22.826Z,37.37
2023-05-21T08:07:49.587Z,37.25
2023-05-21T08:10:19.127Z,36.91
2023-05-21T08:12:47.564Z,36.83
2023-05-21T08:15:14.199Z,37.23
2023-05-21T08:17:43.754Z,37.47
2023-05-21T08:20:11.126Z,36.42
2023-05-21T08:22:37.958Z,36.00
2023-05-21T08:25:05.067Z,35.83
2023-05-21T08:27:32.514Z,36.52
2023-05-21T08:29:59.421Z,36.32
2023-05-21T08:32:26.708Z,36.65
2023-05-21T08:34:57.721Z,36.29
2023-05-21T08:37:39.744Z,35.89
2023-05-21T08:40:22.977Z,36.65
2023-05-21T08:42:50.200Z,36.80
2023-05-21T08:45:22.314Z,36.99
2023-05-21T08:47:56.446Z,37.15
2023-05-21T08:50:27.155Z,36.61
2023-05-21T08:52:55.859Z,36.81
2023-05-21T08:55:23.101Z,37.00
2023-05-21T08:57:50.321Z,36.77
2023-05-21T09:00:20.200Z,36.29
2023-05-21T09:02:47.765Z,36.36
2023-05-21T09:05:16.224Z,36.28
2023-05-21T09:07:52.735Z,35.73
2023-05-21T09:10:39.968Z,36.41
2023-05-21T09:13:07.483Z,36.52
2023-05-21T09:15:34.610Z,36.20
2023-05-21T09:18:01.660Z,35.52
2023-05-21T09:20:43.604Z,35.96
2023-05-21T09:23:15.843Z,36.76
2023-05-21T09:25:46.978Z,37.06
2023-05-21T09:28:18.597Z,36.54
2023-05-21T09:30:53.159Z,36.08
2023-05-21T09:33:28.768Z,36.21
2023-05-21T09:35:56.103Z,36.94
2023-05-21T09:38:26.376Z,36.87
2023-05-21T09:40:57.322Z,35.96
2023-05-21T09:43:24.732Z,35.55
2023-05-21T09:45:53.229Z,34.82
2023-05-21T09:48:37.357Z,35.41
2023-05-21T09:51:13.225Z,35.64
2023-05-21T09:53:57.378Z,35.79
2023-05-21T09:56:28.360Z,34.65
2023-05-21T09:58:56.521Z,35.25
2023-05-21T10:01:23.972Z,35.69
2023-05-21T10:05:48.534Z,36.14
2023-05-21T10:08:15.531Z,35.86
2023-05-21T10:10:42.429Z,35.01
2023-05-21T10:13:10.467Z,35.53
2023-05-21T10:15:43.077Z,35.08
2023-05-21T10:18:13.929Z,34.59
2023-05-21T10:20:41.933Z,33.76
2023-05-21T10:23:13.286Z,33.34
2023-05-21T10:25:40.287Z,33.04
2023-05-21T10:28:07.371Z,33.81
2023-05-21T10:30:35.120Z,34.42
2023-05-21T10:33:02.572Z,33.78
2023-05-21T10:35:30.055Z,33.42
2023-05-21T10:37:57.449Z,33.18
2023-05-21T10:40:25.623Z,33.61
2023-05-21T10:43:07.993Z,33.77
2023-05-21T10:46:06.242Z,33.40
2023-05-21T10:49:16.221Z,33.24
2023-05-21T10:51:54.402Z,32.85
2023-05-21T10:54:46.770Z,33.12
2023-05-21T10:57:33.604Z,32.36
2023-05-21T11:00:01.408Z,31.48
2023-05-21T11:02:28.526Z,31.54
2023-05-21T11:05:00.728Z,32.13
2023-05-21T11:07:56.883Z,32.55
2023-05-21T11:10:38.241Z,32.20
2023-05-21T11:13:11.579Z,32.92
2023-05-21T11:15:57.798Z,32.65
2023-05-21T11:18:35.436Z,32.72
2023-05-21T11:21:06.582Z,32.63
2023-05-21T11:23:52.182Z,32.56
2023-05-21T11:26:48.498Z,32.68
2023-05-21T11:29:15.620Z,32.37
2023-05-21T11:31:48.038Z,32.24
2023-05-21T11:34:19.834Z,32.23
2023-05-21T11:36:49.550Z,31.41
2023-05-21T11:39:22.289Z,31.46
2023-05-21T11:41:58.206Z,30.82
2023-05-21T11:44:41.701Z,29.69
2023-05-21T11:47:15.555Z,29.76
2023-05-21T11:49:42.725Z,29.88
2023-05-21T11:52:10.755Z,29.60
2023-05-21T11:54:48.735Z,30.18
2023-05-21T11:57:19.679Z,30.90
2023-05-21T11:59:47.258Z,30.13
2023-05-21T12:02:16.746Z,29.95
2023-05-21T12:04:45.421Z,30.39
2023-05-21T12:07:15.308Z,31.43
2023-05-21T12:09:47.307Z,31.19
2023-05-21T12:12:16.006Z,31.57
2023-05-21T12:14:53.692Z,31.21
2023-05-21T12:17:28.351Z,30.96
2023-05-21T12:19:57.039Z,31.63
2023-05-21T12:22:25.148Z,31.49
2023-05-21T12:24:53.940Z,31.20
2023-05-21T12:27:21.806Z,31.32
2023-05-21T12:29:52.019Z,31.31
2023-05-21T12:32:21.145Z,30.99
2023-05-21T12:34:49.888Z,30.61
2023-05-21T12:37:27.817Z,30.14
2023-05-21T12:39:56.025Z,30.73
2023-05-21T12:42:36.024Z,31.45
2023-05-21T12:45:07.513Z,30.70
2023-05-21T12:47:34.922Z,30.90
2023-05-21T12:50:04.908Z,30.34
2023-05-21T12:52:32.023Z,30.69
2023-05-21T12:55:00.138Z,31.25
2023-05-21T12:57:28.370Z,31.02
2023-05-21T12:59:56.866Z,30.88
2023-05-21T13:02:29.164Z,30.50
2023-05-21T13:05:04.025Z,30.14
2023-05-21T13:07:33.905Z,30.37
2023-05-21T13:10:01.338Z,31.08
2023-05-21T13:12:29.832Z,31.36
2023-05-21T13:14:59.029Z,31.77
2023-05-21T13:17:27.639Z,32.25
2023-05-21T13:20:13.619Z,32.34
2023-05-21T13:22:47.338Z,32.46
2023-05-21T13:25:25.379Z,33.11
2023-05-21T13:27:57.795Z,33.64
2023-05-21T13:30:24.947Z,34.04
2023-05-21T13:32:52.494Z,34.08
2023-05-21T13:35:19.827Z,33.84
2023-05-21T13:37:47.062Z,33.95
2023-05-21T13:40:15.425Z,34.23
2023-05-21T13:42:44.166Z,34.24
2023-05-21T13:45:12.656Z,33.52
2023-05-21T13:47:41.391Z,32.92
2023-05-21T13:50:09.260Z,31.55
2023-05-21T13:52:38.383Z,30.76
2023-05-21T13:55:06.022Z,30.51
2023-05-21T13:57:34.179Z,30.36
2023-05-21T14:00:01.728Z,31.02
2023-05-21T14:02:34.875Z,31.23
2023-05-21T14:05:02.056Z,31.34
2023-05-21T14:07:30.188Z,30.94
2023-05-21T14:09:58.427Z,30.21
2023-05-21T14:12:26.987Z,29.51
2023-05-21T14:14:54.215Z,29.41
2023-05-21T14:17:22.385Z,30.21
2023-05-21T14:19:49.405Z,30.03
2023-05-21T14:22:16.516Z,30.37
2023-05-21T14:24:43.616Z,30.28
2023-05-21T14:27:11.819Z,29.51
2023-05-21T14:29:40.954Z,29.19
2023-05-21T14:32:08.248Z,28.79
2023-05-21T14:34:37.646Z,28.42
2023-05-21T14:37:04.885Z,28.64
2023-05-21T14:39:31.897Z,28.46
2023-05-21T14:42:14.749Z,28.48
2023-05-21T14:44:41.711Z,28.68
2023-05-21T14:47:08.803Z,28.95
2023-05-21T14:49:35.929Z,28.99
2023-05-21T14:52:03.003Z,29.32
2023-05-21T14:54:36.446Z,29.14
2023-05-21T14:57:04.822Z,28.31
2023-05-21T14:59:31.908Z,28.17
2023-05-21T15:02:00.358Z,28.56
2023-05-21T15:04:27.536Z,28.54
2023-05-21T15:06:54.477Z,28.84
2023-05-21T15:09:21.664Z,28.25
2023-05-21T15:11:52.754Z,28.41
2023-05-21T15:14:20.892Z,28.62
2023-05-21T15:16:49.050Z,28.60
2023-05-21T15:19:18.241Z,28.42
2023-05-21T15:21:46.461Z,28.59
2023-05-21T15:24:13.625Z,28.82
2023-05-21T15:26:42.748Z,29.04
2023-05-21T15:29:09.815Z,29.14
2023-05-21T15:31:40.188Z,29.54
2023-05-21T15:34:07.159Z,29.59
2023-05-21T15:36:34.310Z,29.28
2023-05-21T15:39:04.407Z,29.37
2023-05-21T15:41:37.095Z,29.42
2023-05-21T15:44:06.234Z,29.63
2023-05-21T15:46:33.399Z,29.44
2023-05-21T15:49:00.542Z,29.60
2023-05-21T15:51:31.085Z,29.52
2023-05-21T15:53:59.792Z,29.51
2023-05-21T15:56:30.069Z,29.37
2023-05-21T15:59:01.573Z,29.39
2023-05-21T16:01:29.824Z,29.55
2023-05-21T16:03:57.916Z,29.91
2023-05-21T16:06:26.064Z,29.89
2023-05-21T16:08:53.113Z,29.94
2023-05-21T16:11:20.021Z,30.09
2023-05-21T16:13:47.102Z,30.13
2023-05-21T16:16:14.120Z,29.97
2023-05-21T16:18:41.163Z,30.11
2023-05-21T16:21:10.002Z,30.13
2023-05-21T16:23:38.914Z,30.28
2023-05-21T16:26:08.108Z,30.47
2023-05-21T16:28:37.543Z,30.73
2023-05-21T16:31:05.215Z,31.12
2023-05-21T16:33:33.272Z,31.48
2023-05-21T16:36:00.321Z,31.41
2023-05-21T16:38:27.386Z,31.12
2023-05-21T16:40:54.495Z,31.08
2023-05-21T16:43:21.635Z,31.64
2023-05-21T16:45:49.313Z,31.42
2023-05-21T16:48:19.096Z,31.14
2023-05-21T16:50:47.330Z,31.38
2023-05-21T16:53:16.956Z,31.42
2023-05-21T16:55:45.091Z,31.51
2023-05-21T16:58:14.049Z,31.29
2023-05-21T17:00:41.183Z,31.31
2023-05-21T17:03:08.453Z,31.64
2023-05-21T17:05:35.705Z,31.87
2023-05-21T17:08:03.062Z,32.33
2023-05-21T17:10:31.324Z,32.38
2023-05-21T17:13:01.832Z,32.82
2023-05-21T17:15:37.229Z,32.68
2023-05-21T17:18:04.695Z,33.03
2023-05-21T17:20:31.832Z,33.08
2023-05-21T17:22:59.960Z,33.58
2023-05-21T17:25:27.079Z,33.45
2023-05-21T17:27:55.237Z,33.77
2023-05-21T17:30:22.338Z,34.01
2023-05-21T17:32:49.313Z,34.42
2023-05-21T17:35:17.437Z,34.63
2023-05-21T17:37:45.783Z,35.11
2023-05-21T17:40:13.097Z,35.65
2023-05-21T17:42:43.053Z,36.22
2023-05-21T17:45:10.820Z,36.34
2023-05-21T17:47:39.109Z,36.86
2023-05-21T17:50:32.573Z,37.07
2023-05-21T17:52:59.716Z,37.39
2023-05-21T17:55:26.692Z,37.63
2023-05-21T17:57:53.770Z,37.88
2023-05-21T18:00:20.970Z,37.69
2023-05-21T18:02:47.947Z,38.14
2023-05-21T18:05:15.006Z,37.95
2023-05-21T18:07:42.915Z,38.00
2023-05-21T18:10:11.161Z,38.32
2023-05-21T18:12:38.246Z,38.25
2023-05-21T18:15:05.586Z,38.19
2023-05-21T18:17:32.608Z,37.80
2023-05-21T18:19:59.729Z,37.79
2023-05-21T18:22:26.898Z,37.70
2023-05-21T18:24:54.984Z,37.81
2023-05-21T18:27:22.265Z,37.76
2023-05-21T18:29:53.327Z,37.44
2023-05-21T18:32:22.920Z,37.56
2023-05-21T18:34:51.911Z,37.52
2023-05-21T18:37:19.032Z,37.49
2023-05-21T18:39:46.151Z,37.80
2023-05-21T18:42:14.253Z,37.63
2023-05-21T18:44:41.760Z,37.69
2023-05-21T18:47:08.876Z,37.65
2023-05-21T18:49:36.371Z,37.69
2023-05-21T18:52:06.595Z,37.82
2023-05-21T18:54:33.572Z,37.97
2023-05-21T18:57:00.838Z,38.18
2023-05-21T18:59:28.606Z,38.35
2023-05-21T19:01:55.757Z,38.50
2023-05-21T19:04:23.035Z,38.62
2023-05-21T19:06:50.050Z,38.70
2023-05-21T19:09:17.130Z,38.78
2023-05-21T19:11:44.182Z,38.76
2023-05-21T19:14:11.238Z,38.92
2023-05-21T19:16:38.395Z,39.02
2023-05-21T19:19:06.224Z,39.13
2023-05-21T19:21:33.298Z,38.94
2023-05-21T19:24:00.912Z,39.11
2023-05-21T19:26:28.339Z,39.43
2023-05-21T19:28:55.698Z,39.32
2023-05-21T19:31:23.059Z,39.45
2023-05-21T19:33:50.705Z,39.48
2023-05-21T19:36:18.867Z,39.52
2023-05-21T19:38:49.514Z,39.51
2023-05-21T19:41:17.146Z,39.74
2023-05-21T19:43:45.061Z,39.59
2023-05-21T19:46:12.072Z,39.67
2023-05-21T19:48:39.232Z,39.37
2023-05-21T19:51:06.291Z,39.66
2023-05-21T19:53:33.340Z,39.77
2023-05-21T19:56:00.442Z,40.08
2023-05-21T19:58:29.769Z,40.06
2023-05-21T20:00:58.560Z,40.06
2023-05-21T20:03:35.827Z,39.97
2023-05-21T20:06:03.642Z,39.99
2023-05-21T20:08:30.896Z,40.11
2023-05-21T20:10:57.881Z,40.21
2023-05-21T20:13:26.090Z,40.33
2023-05-21T20:15:54.230Z,40.63
2023-05-21T20:18:21.879Z,40.97
2023-05-21T20:20:49.411Z,41.31
2023-05-21T20:23:16.442Z,41.27
2023-05-21T20:25:43.445Z,41.72
2023-05-21T20:28:10.466Z,41.99
2023-05-21T20:30:57.908Z,42.21
2023-05-21T20:33:28.068Z,42.58
2023-05-21T20:35:55.110Z,42.25
2023-05-21T20:38:22.254Z,42.42
2023-05-21T20:40:49.305Z,42.38
2023-05-21T20:43:18.672Z,42.32
2023-05-21T20:45:46.725Z,42.23
2023-05-21T20:48:15.020Z,42.09
2023-05-21T20:50:44.351Z,42.12
2023-05-21T20:53:16.320Z,42.41
2023-05-21T20:55:44.995Z,42.69
2023-05-21T20:58:11.992Z,42.64
2023-05-21T21:00:42.075Z,42.74
2023-05-21T21:03:11.614Z,42.78
2023-05-21T21:05:38.907Z,42.99
2023-05-21T21:08:08.414Z,43.02
2023-05-21T21:10:36.147Z,43.02
2023-05-21T21:13:03.682Z,43.04
2023-05-21T21:15:30.809Z,43.27
2023-05-21T21:17:58.929Z,43.23
2023-05-21T21:20:25.935Z,43.27
2023-05-21T21:22:54.037Z,43.13
2023-05-21T21:25:21.076Z,43.42
2023-05-21T21:27:48.002Z,43.78
2023-05-21T21:30:15.052Z,43.82
2023-05-21T21:32:41.938Z,43.86
2023-05-21T21:35:10.081Z,43.85
2023-05-21T21:37:37.023Z,43.99
2023-05-21T21:40:05.712Z,43.87
2023-05-21T21:42:33.397Z,43.73
2023-05-21T21:45:00.544Z,43.85
2023-05-21T21:47:27.456Z,43.84
2023-05-21T21:49:54.469Z,43.83
2023-05-21T21:52:21.451Z,43.92
2023-05-21T21:54:48.361Z,43.89
2023-05-21T21:57:15.345Z,43.59
2023-05-21T21:59:42.331Z,43.70
2023-05-21T22:02:09.218Z,43.72
2023-05-21T22:04:36.253Z,44.13
2023-05-21T22:07:04.226Z,43.89
2023-05-21T22:09:31.306Z,44.41
2023-05-21T22:11:59.268Z,44.33
2023-05-21T22:14:26.206Z,44.14
2023-05-21T22:16:55.417Z,44.24
2023-05-21T22:19:24.346Z,44.10
2023-05-21T22:23:21.497Z,45.06
2023-05-21T22:25:50.612Z,44.25
2023-05-21T22:28:17.676Z,44.20
2023-05-21T22:30:44.623Z,44.32
2023-05-21T22:33:11.742Z,44.38
2023-05-21T22:35:38.732Z,44.22
2023-05-21T22:38:06.606Z,44.49
2023-05-21T22:40:33.533Z,44.90
2023-05-21T22:43:02.533Z,44.88
2023-05-21T22:45:29.562Z,44.48
2023-05-21T22:47:56.848Z,44.46
2023-05-21T22:50:29.428Z,44.70
2023-05-21T22:52:57.599Z,45.02
2023-05-21T22:55:25.721Z,45.00
2023-05-21T22:57:54.857Z,44.58
2023-05-21T23:00:21.860Z,44.68
2023-05-21T23:02:50.652Z,44.95
2023-05-21T23:05:19.452Z,44.76
2023-05-21T23:07:46.673Z,44.16
2023-05-21T23:10:13.621Z,43.92
2023-05-21T23:12:41.611Z,44.40
2023-05-21T23:15:10.266Z,44.70
2023-05-21T23:17:38.040Z,44.84
2023-05-21T23:20:07.596Z,44.47
2023-05-21T23:22:35.447Z,44.64
2023-05-21T23:25:02.671Z,44.82
2023-05-21T23:27:29.652Z,45.29
2023-05-21T23:29:56.651Z,45.12
2023-05-21T23:32:23.788Z,44.96
2023-05-21T23:34:51.022Z,44.76
2023-05-21T23:37:17.968Z,44.85
2023-05-21T23:39:48.304Z,45.15
2023-05-21T23:42:18.603Z,45.19
2023-05-21T23:44:47.609Z,45.07
2023-05-21T23:47:14.573Z,44.86
2023-05-21T23:49:42.703Z,45.02
2023-05-21T23:52:13.632Z,44.87
2023-05-21T23:54:41.706Z,44.93
2023-05-21T23:57:08.701Z,45.00
2023-05-21T23:59:35.788Z,44.93
